sensor_id;sensor_type;location;lat;lon;timestamp;P1;durP1;ratioP1;P2;durP2;ratioP2
6785;SDS011;3430;51.192;6.048;2023-12-22T00:02:19;4.63;;;2.40;;
6785;SDS011;3430;51.192;6.048;2023-12-22T00:05:00;6.37;;;2.73;;
6785;SDS011;3430;51.192;6.048;2023-12-22T00:07:49;4.13;;;2.40;;
6785;SDS011;3430;51.192;6.048;2023-12-22T00:10:19;6.13;;;2.80;;
6785;SDS011;3430;51.192;6.048;2023-12-22T00:12:48;5.90;;;2.53;;
6785;SDS011;3430;51.192;6.048;2023-12-22T00:15:13;6.33;;;2.40;;
6785;SDS011;3430;51.192;6.048;2023-12-22T00:17:38;5.57;;;2.47;;
6785;SDS011;3430;51.192;6.048;2023-12-22T00:20:04;2.80;;;2.33;;
6785;SDS011;3430;51.192;6.048;2023-12-22T00:22:32;5.37;;;2.50;;
6785;SDS011;3430;51.192;6.048;2023-12-22T00:24:57;4.67;;;2.23;;
6785;SDS011;3430;51.192;6.048;2023-12-22T00:27:23;6.63;;;2.77;;
6785;SDS011;3430;51.192;6.048;2023-12-22T00:29:48;2.80;;;2.10;;
6785;SDS011;3430;51.192;6.048;2023-12-22T00:32:14;4.13;;;2.50;;
6785;SDS011;3430;51.192;6.048;2023-12-22T00:34:39;3.77;;;2.03;;
6785;SDS011;3430;51.192;6.048;2023-12-22T00:37:05;4.23;;;2.33;;
6785;SDS011;3430;51.192;6.048;2023-12-22T00:39:30;4.00;;;2.47;;
6785;SDS011;3430;51.192;6.048;2023-12-22T00:41:56;2.43;;;2.03;;
6785;SDS011;3430;51.192;6.048;2023-12-22T00:44:21;3.23;;;2.10;;
6785;SDS011;3430;51.192;6.048;2023-12-22T00:46:47;3.13;;;2.10;;
6785;SDS011;3430;51.192;6.048;2023-12-22T00:49:12;2.93;;;2.10;;
6785;SDS011;3430;51.192;6.048;2023-12-22T00:51:38;4.33;;;2.80;;
6785;SDS011;3430;51.192;6.048;2023-12-22T00:54:03;4.37;;;2.30;;
6785;SDS011;3430;51.192;6.048;2023-12-22T00:56:29;4.97;;;2.20;;
6785;SDS011;3430;51.192;6.048;2023-12-22T00:58:58;2.57;;;2.07;;
6785;SDS011;3430;51.192;6.048;2023-12-22T01:01:26;3.27;;;2.27;;
6785;SDS011;3430;51.192;6.048;2023-12-22T01:03:51;4.50;;;2.00;;
6785;SDS011;3430;51.192;6.048;2023-12-22T01:06:17;3.97;;;2.40;;
6785;SDS011;3430;51.192;6.048;2023-12-22T01:08:45;3.70;;;2.30;;
6785;SDS011;3430;51.192;6.048;2023-12-22T01:11:15;3.37;;;2.40;;
6785;SDS011;3430;51.192;6.048;2023-12-22T01:13:40;4.87;;;2.30;;
6785;SDS011;3430;51.192;6.048;2023-12-22T01:16:06;5.00;;;2.47;;
6785;SDS011;3430;51.192;6.048;2023-12-22T01:18:34;5.80;;;2.90;;
6785;SDS011;3430;51.192;6.048;2023-12-22T01:20:59;7.20;;;2.40;;
6785;SDS011;3430;51.192;6.048;2023-12-22T01:23:28;3.43;;;2.37;;
6785;SDS011;3430;51.192;6.048;2023-12-22T01:25:57;3.33;;;2.37;;
6785;SDS011;3430;51.192;6.048;2023-12-22T01:28:22;3.60;;;1.93;;
6785;SDS011;3430;51.192;6.048;2023-12-22T01:31:07;5.03;;;2.47;;
6785;SDS011;3430;51.192;6.048;2023-12-22T01:33:32;6.20;;;2.77;;
6785;SDS011;3430;51.192;6.048;2023-12-22T01:36:03;4.47;;;2.57;;
6785;SDS011;3430;51.192;6.048;2023-12-22T01:38:29;6.03;;;2.30;;
6785;SDS011;3430;51.192;6.048;2023-12-22T01:40:57;5.50;;;2.40;;
6785;SDS011;3430;51.192;6.048;2023-12-22T01:43:33;3.87;;;2.30;;
6785;SDS011;3430;51.192;6.048;2023-12-22T01:46:04;3.80;;;2.30;;
6785;SDS011;3430;51.192;6.048;2023-12-22T01:48:34;4.67;;;2.50;;
6785;SDS011;3430;51.192;6.048;2023-12-22T01:51:05;3.67;;;2.27;;
6785;SDS011;3430;51.192;6.048;2023-12-22T01:53:34;5.23;;;2.23;;
6785;SDS011;3430;51.192;6.048;2023-12-22T01:56:03;2.77;;;2.10;;
6785;SDS011;3430;51.192;6.048;2023-12-22T01:58:30;3.77;;;2.23;;
6785;SDS011;3430;51.192;6.048;2023-12-22T02:00:56;3.27;;;2.30;;
6785;SDS011;3430;51.192;6.048;2023-12-22T02:03:21;4.90;;;2.57;;
6785;SDS011;3430;51.192;6.048;2023-12-22T02:05:47;5.20;;;2.50;;
6785;SDS011;3430;51.192;6.048;2023-12-22T02:08:13;3.77;;;2.63;;
6785;SDS011;3430;51.192;6.048;2023-12-22T02:10:39;2.93;;;2.20;;
6785;SDS011;3430;51.192;6.048;2023-12-22T02:13:05;2.70;;;2.40;;
6785;SDS011;3430;51.192;6.048;2023-12-22T02:15:36;6.90;;;2.80;;
6785;SDS011;3430;51.192;6.048;2023-12-22T02:18:16;4.33;;;2.50;;
6785;SDS011;3430;51.192;6.048;2023-12-22T02:20:44;4.33;;;2.30;;
6785;SDS011;3430;51.192;6.048;2023-12-22T02:23:12;5.53;;;2.63;;
6785;SDS011;3430;51.192;6.048;2023-12-22T02:25:38;7.53;;;2.30;;
6785;SDS011;3430;51.192;6.048;2023-12-22T02:28:05;3.77;;;2.40;;
6785;SDS011;3430;51.192;6.048;2023-12-22T02:30:33;7.23;;;3.10;;
6785;SDS011;3430;51.192;6.048;2023-12-22T02:33:00;4.97;;;2.07;;
6785;SDS011;3430;51.192;6.048;2023-12-22T02:35:26;3.20;;;2.50;;
6785;SDS011;3430;51.192;6.048;2023-12-22T02:37:53;4.27;;;2.70;;
6785;SDS011;3430;51.192;6.048;2023-12-22T02:40:19;2.90;;;2.20;;
6785;SDS011;3430;51.192;6.048;2023-12-22T02:42:45;3.27;;;2.20;;
6785;SDS011;3430;51.192;6.048;2023-12-22T02:45:15;4.97;;;2.33;;
6785;SDS011;3430;51.192;6.048;2023-12-22T02:47:41;5.37;;;2.97;;
6785;SDS011;3430;51.192;6.048;2023-12-22T02:50:07;2.70;;;2.10;;
6785;SDS011;3430;51.192;6.048;2023-12-22T02:52:32;6.90;;;3.00;;
6785;SDS011;3430;51.192;6.048;2023-12-22T02:54:58;6.57;;;2.30;;
6785;SDS011;3430;51.192;6.048;2023-12-22T02:57:27;5.77;;;2.50;;
6785;SDS011;3430;51.192;6.048;2023-12-22T02:59:52;3.73;;;2.70;;
6785;SDS011;3430;51.192;6.048;2023-12-22T03:02:18;6.07;;;2.40;;
6785;SDS011;3430;51.192;6.048;2023-12-22T03:04:43;8.03;;;2.50;;
6785;SDS011;3430;51.192;6.048;2023-12-22T03:07:11;5.30;;;2.57;;
6785;SDS011;3430;51.192;6.048;2023-12-22T03:09:36;6.10;;;2.97;;
6785;SDS011;3430;51.192;6.048;2023-12-22T03:12:04;3.87;;;2.40;;
6785;SDS011;3430;51.192;6.048;2023-12-22T03:14:30;4.83;;;2.20;;
6785;SDS011;3430;51.192;6.048;2023-12-22T03:16:58;6.57;;;2.70;;
6785;SDS011;3430;51.192;6.048;2023-12-22T03:19:24;4.27;;;2.37;;
6785;SDS011;3430;51.192;6.048;2023-12-22T03:21:49;8.00;;;2.60;;
6785;SDS011;3430;51.192;6.048;2023-12-22T03:24:15;6.40;;;2.50;;
6785;SDS011;3430;51.192;6.048;2023-12-22T03:26:43;4.47;;;2.27;;
6785;SDS011;3430;51.192;6.048;2023-12-22T03:29:09;4.73;;;2.60;;
6785;SDS011;3430;51.192;6.048;2023-12-22T03:31:35;8.97;;;2.40;;
6785;SDS011;3430;51.192;6.048;2023-12-22T03:34:03;4.30;;;2.37;;
6785;SDS011;3430;51.192;6.048;2023-12-22T03:36:32;5.03;;;2.20;;
6785;SDS011;3430;51.192;6.048;2023-12-22T03:39:03;4.13;;;2.50;;
6785;SDS011;3430;51.192;6.048;2023-12-22T03:41:32;7.67;;;3.17;;
6785;SDS011;3430;51.192;6.048;2023-12-22T03:44:01;3.60;;;2.33;;
6785;SDS011;3430;51.192;6.048;2023-12-22T03:46:27;6.20;;;2.20;;
6785;SDS011;3430;51.192;6.048;2023-12-22T03:49:08;5.03;;;2.43;;
6785;SDS011;3430;51.192;6.048;2023-12-22T03:51:42;2.80;;;2.23;;
6785;SDS011;3430;51.192;6.048;2023-12-22T03:54:14;4.97;;;2.90;;
6785;SDS011;3430;51.192;6.048;2023-12-22T03:56:42;7.83;;;2.57;;
6785;SDS011;3430;51.192;6.048;2023-12-22T03:59:12;4.47;;;2.77;;
6785;SDS011;3430;51.192;6.048;2023-12-22T04:01:38;5.23;;;2.30;;
6785;SDS011;3430;51.192;6.048;2023-12-22T04:04:12;4.60;;;2.50;;
6785;SDS011;3430;51.192;6.048;2023-12-22T04:06:38;3.67;;;2.50;;
6785;SDS011;3430;51.192;6.048;2023-12-22T04:09:05;8.03;;;2.43;;
6785;SDS011;3430;51.192;6.048;2023-12-22T04:11:38;6.30;;;2.47;;
6785;SDS011;3430;51.192;6.048;2023-12-22T04:14:06;5.03;;;2.73;;
6785;SDS011;3430;51.192;6.048;2023-12-22T04:16:32;4.70;;;2.70;;
6785;SDS011;3430;51.192;6.048;2023-12-22T04:18:58;4.03;;;2.30;;
6785;SDS011;3430;51.192;6.048;2023-12-22T04:21:24;8.20;;;3.37;;
6785;SDS011;3430;51.192;6.048;2023-12-22T04:23:49;3.43;;;2.33;;
6785;SDS011;3430;51.192;6.048;2023-12-22T04:26:15;8.90;;;3.27;;
6785;SDS011;3430;51.192;6.048;2023-12-22T04:28:40;6.97;;;3.03;;
6785;SDS011;3430;51.192;6.048;2023-12-22T04:31:08;6.40;;;2.70;;
6785;SDS011;3430;51.192;6.048;2023-12-22T04:33:37;5.27;;;2.57;;
6785;SDS011;3430;51.192;6.048;2023-12-22T04:36:08;6.10;;;2.77;;
6785;SDS011;3430;51.192;6.048;2023-12-22T04:38:36;3.17;;;2.30;;
6785;SDS011;3430;51.192;6.048;2023-12-22T04:41:11;6.50;;;3.50;;
6785;SDS011;3430;51.192;6.048;2023-12-22T04:43:43;5.57;;;2.50;;
6785;SDS011;3430;51.192;6.048;2023-12-22T04:46:08;6.33;;;3.43;;
6785;SDS011;3430;51.192;6.048;2023-12-22T04:48:36;7.27;;;3.00;;
6785;SDS011;3430;51.192;6.048;2023-12-22T04:51:05;6.30;;;2.93;;
6785;SDS011;3430;51.192;6.048;2023-12-22T04:53:36;4.77;;;2.63;;
6785;SDS011;3430;51.192;6.048;2023-12-22T04:56:02;5.13;;;2.87;;
6785;SDS011;3430;51.192;6.048;2023-12-22T04:58:32;7.33;;;2.93;;
6785;SDS011;3430;51.192;6.048;2023-12-22T05:01:01;4.47;;;2.87;;
6785;SDS011;3430;51.192;6.048;2023-12-22T05:03:32;4.80;;;2.30;;
6785;SDS011;3430;51.192;6.048;2023-12-22T05:06:01;5.03;;;2.43;;
6785;SDS011;3430;51.192;6.048;2023-12-22T05:08:26;3.90;;;2.40;;
6785;SDS011;3430;51.192;6.048;2023-12-22T05:10:59;7.53;;;2.43;;
6785;SDS011;3430;51.192;6.048;2023-12-22T05:13:24;4.70;;;2.33;;
6785;SDS011;3430;51.192;6.048;2023-12-22T05:15:53;8.17;;;3.20;;
6785;SDS011;3430;51.192;6.048;2023-12-22T05:18:18;6.63;;;2.50;;
6785;SDS011;3430;51.192;6.048;2023-12-22T05:20:46;4.63;;;2.47;;
6785;SDS011;3430;51.192;6.048;2023-12-22T05:23:15;3.50;;;2.50;;
6785;SDS011;3430;51.192;6.048;2023-12-22T05:25:46;6.50;;;2.40;;
6785;SDS011;3430;51.192;6.048;2023-12-22T05:28:15;5.33;;;2.57;;
6785;SDS011;3430;51.192;6.048;2023-12-22T05:30:43;3.70;;;2.53;;
6785;SDS011;3430;51.192;6.048;2023-12-22T05:33:12;3.93;;;2.63;;
6785;SDS011;3430;51.192;6.048;2023-12-22T05:35:37;10.13;;;2.50;;
6785;SDS011;3430;51.192;6.048;2023-12-22T05:38:03;6.07;;;2.77;;
6785;SDS011;3430;51.192;6.048;2023-12-22T05:40:28;5.23;;;2.53;;
6785;SDS011;3430;51.192;6.048;2023-12-22T05:42:54;5.03;;;3.00;;
6785;SDS011;3430;51.192;6.048;2023-12-22T05:45:22;5.93;;;2.50;;
6785;SDS011;3430;51.192;6.048;2023-12-22T05:47:49;4.97;;;3.13;;
6785;SDS011;3430;51.192;6.048;2023-12-22T05:50:15;5.93;;;3.07;;
6785;SDS011;3430;51.192;6.048;2023-12-22T05:52:43;3.53;;;2.50;;
6785;SDS011;3430;51.192;6.048;2023-12-22T05:55:11;7.77;;;2.60;;
6785;SDS011;3430;51.192;6.048;2023-12-22T05:57:41;4.67;;;2.70;;
6785;SDS011;3430;51.192;6.048;2023-12-22T06:00:09;5.63;;;3.20;;
6785;SDS011;3430;51.192;6.048;2023-12-22T06:02:36;5.73;;;2.77;;
6785;SDS011;3430;51.192;6.048;2023-12-22T06:05:05;6.47;;;2.70;;
6785;SDS011;3430;51.192;6.048;2023-12-22T06:07:30;4.07;;;2.53;;
6785;SDS011;3430;51.192;6.048;2023-12-22T06:09:56;6.40;;;2.70;;
6785;SDS011;3430;51.192;6.048;2023-12-22T06:12:27;5.53;;;2.67;;
6785;SDS011;3430;51.192;6.048;2023-12-22T06:14:55;6.23;;;2.87;;
6785;SDS011;3430;51.192;6.048;2023-12-22T06:17:25;7.83;;;3.67;;
6785;SDS011;3430;51.192;6.048;2023-12-22T06:19:53;4.50;;;2.67;;
6785;SDS011;3430;51.192;6.048;2023-12-22T06:22:18;5.50;;;2.73;;
6785;SDS011;3430;51.192;6.048;2023-12-22T06:24:48;7.33;;;3.50;;
6785;SDS011;3430;51.192;6.048;2023-12-22T06:27:14;6.43;;;2.60;;
6785;SDS011;3430;51.192;6.048;2023-12-22T06:29:42;4.33;;;2.40;;
6785;SDS011;3430;51.192;6.048;2023-12-22T06:32:08;4.80;;;2.33;;
6785;SDS011;3430;51.192;6.048;2023-12-22T06:34:33;10.53;;;4.60;;
6785;SDS011;3430;51.192;6.048;2023-12-22T06:36:58;6.37;;;2.40;;
6785;SDS011;3430;51.192;6.048;2023-12-22T06:39:24;7.53;;;3.40;;
6785;SDS011;3430;51.192;6.048;2023-12-22T06:41:50;6.63;;;3.30;;
6785;SDS011;3430;51.192;6.048;2023-12-22T06:44:21;6.80;;;2.97;;
6785;SDS011;3430;51.192;6.048;2023-12-22T06:46:52;6.17;;;2.67;;
6785;SDS011;3430;51.192;6.048;2023-12-22T06:49:25;8.80;;;3.00;;
6785;SDS011;3430;51.192;6.048;2023-12-22T06:58:26;3.67;;;2.43;;
6785;SDS011;3430;51.192;6.048;2023-12-22T07:01:01;6.07;;;2.67;;
6785;SDS011;3430;51.192;6.048;2023-12-22T07:03:38;7.43;;;3.00;;
6785;SDS011;3430;51.192;6.048;2023-12-22T07:06:12;4.13;;;2.60;;
6785;SDS011;3430;51.192;6.048;2023-12-22T07:11:31;5.23;;;2.73;;
6785;SDS011;3430;51.192;6.048;2023-12-22T07:13:59;5.60;;;2.77;;
6785;SDS011;3430;51.192;6.048;2023-12-22T07:18:57;7.67;;;3.00;;
6785;SDS011;3430;51.192;6.048;2023-12-22T07:21:23;8.70;;;3.50;;
6785;SDS011;3430;51.192;6.048;2023-12-22T07:23:48;5.13;;;2.83;;
6785;SDS011;3430;51.192;6.048;2023-12-22T07:26:22;8.50;;;3.23;;
6785;SDS011;3430;51.192;6.048;2023-12-22T07:29:01;5.70;;;2.73;;
6785;SDS011;3430;51.192;6.048;2023-12-22T07:31:29;7.73;;;3.20;;
6785;SDS011;3430;51.192;6.048;2023-12-22T07:33:54;7.73;;;3.00;;
6785;SDS011;3430;51.192;6.048;2023-12-22T07:36:22;6.30;;;2.90;;
6785;SDS011;3430;51.192;6.048;2023-12-22T07:38:50;5.73;;;2.87;;
6785;SDS011;3430;51.192;6.048;2023-12-22T07:41:16;4.93;;;2.83;;
6785;SDS011;3430;51.192;6.048;2023-12-22T07:43:42;5.03;;;3.13;;
6785;SDS011;3430;51.192;6.048;2023-12-22T07:46:07;11.53;;;3.47;;
6785;SDS011;3430;51.192;6.048;2023-12-22T07:48:40;8.97;;;3.47;;
6785;SDS011;3430;51.192;6.048;2023-12-22T07:51:12;8.17;;;3.27;;
6785;SDS011;3430;51.192;6.048;2023-12-22T07:53:40;9.50;;;3.47;;
6785;SDS011;3430;51.192;6.048;2023-12-22T07:56:11;8.13;;;2.90;;
6785;SDS011;3430;51.192;6.048;2023-12-22T07:58:37;8.90;;;3.07;;
6785;SDS011;3430;51.192;6.048;2023-12-22T08:01:03;7.27;;;3.53;;
6785;SDS011;3430;51.192;6.048;2023-12-22T08:03:29;10.73;;;3.60;;
6785;SDS011;3430;51.192;6.048;2023-12-22T08:06:03;8.97;;;3.30;;
6785;SDS011;3430;51.192;6.048;2023-12-22T08:08:29;7.50;;;3.20;;
6785;SDS011;3430;51.192;6.048;2023-12-22T08:10:59;6.40;;;2.90;;
6785;SDS011;3430;51.192;6.048;2023-12-22T08:13:24;6.47;;;3.77;;
6785;SDS011;3430;51.192;6.048;2023-12-22T08:15:58;9.10;;;3.37;;
6785;SDS011;3430;51.192;6.048;2023-12-22T08:18:23;7.57;;;3.37;;
6785;SDS011;3430;51.192;6.048;2023-12-22T08:20:49;10.60;;;3.87;;
6785;SDS011;3430;51.192;6.048;2023-12-22T08:23:17;9.53;;;3.60;;
6785;SDS011;3430;51.192;6.048;2023-12-22T08:25:52;11.60;;;3.80;;
6785;SDS011;3430;51.192;6.048;2023-12-22T08:28:26;7.07;;;3.20;;
6785;SDS011;3430;51.192;6.048;2023-12-22T08:31:05;9.50;;;3.83;;
6785;SDS011;3430;51.192;6.048;2023-12-22T08:33:30;11.17;;;3.50;;
6785;SDS011;3430;51.192;6.048;2023-12-22T08:35:59;7.63;;;3.03;;
6785;SDS011;3430;51.192;6.048;2023-12-22T08:38:24;7.63;;;3.60;;
6785;SDS011;3430;51.192;6.048;2023-12-22T08:40:54;10.33;;;3.63;;
6785;SDS011;3430;51.192;6.048;2023-12-22T08:43:20;8.60;;;3.27;;
6785;SDS011;3430;51.192;6.048;2023-12-22T08:48:56;9.10;;;3.97;;
6785;SDS011;3430;51.192;6.048;2023-12-22T08:51:28;10.70;;;3.73;;
6785;SDS011;3430;51.192;6.048;2023-12-22T08:54:02;5.30;;;3.23;;
6785;SDS011;3430;51.192;6.048;2023-12-22T08:56:33;13.23;;;4.57;;
6785;SDS011;3430;51.192;6.048;2023-12-22T09:01:56;10.60;;;3.90;;
6785;SDS011;3430;51.192;6.048;2023-12-22T09:04:28;10.27;;;3.30;;
6785;SDS011;3430;51.192;6.048;2023-12-22T09:07:11;7.70;;;3.53;;
6785;SDS011;3430;51.192;6.048;2023-12-22T09:10:03;12.37;;;3.60;;
6785;SDS011;3430;51.192;6.048;2023-12-22T09:12:28;11.50;;;4.50;;
6785;SDS011;3430;51.192;6.048;2023-12-22T09:14:57;6.53;;;3.17;;
6785;SDS011;3430;51.192;6.048;2023-12-22T09:17:25;11.07;;;3.87;;
6785;SDS011;3430;51.192;6.048;2023-12-22T09:19:56;9.80;;;3.57;;
6785;SDS011;3430;51.192;6.048;2023-12-22T09:22:30;8.77;;;4.40;;
6785;SDS011;3430;51.192;6.048;2023-12-22T09:25:04;8.33;;;3.50;;
6785;SDS011;3430;51.192;6.048;2023-12-22T09:27:37;10.67;;;3.77;;
6785;SDS011;3430;51.192;6.048;2023-12-22T09:30:06;9.10;;;4.50;;
6785;SDS011;3430;51.192;6.048;2023-12-22T09:32:32;14.30;;;3.70;;
6785;SDS011;3430;51.192;6.048;2023-12-22T09:35:05;6.77;;;3.10;;
6785;SDS011;3430;51.192;6.048;2023-12-22T09:40:51;9.73;;;5.20;;
6785;SDS011;3430;51.192;6.048;2023-12-22T09:43:35;9.17;;;3.83;;
6785;SDS011;3430;51.192;6.048;2023-12-22T09:46:18;10.27;;;4.23;;
6785;SDS011;3430;51.192;6.048;2023-12-22T09:51:57;13.30;;;3.63;;
6785;SDS011;3430;51.192;6.048;2023-12-22T09:54:25;13.27;;;3.87;;
6785;SDS011;3430;51.192;6.048;2023-12-22T09:56:53;7.27;;;3.00;;
6785;SDS011;3430;51.192;6.048;2023-12-22T09:59:31;9.50;;;3.80;;
6785;SDS011;3430;51.192;6.048;2023-12-22T10:02:03;11.43;;;4.57;;
6785;SDS011;3430;51.192;6.048;2023-12-22T10:07:40;11.97;;;3.23;;
6785;SDS011;3430;51.192;6.048;2023-12-22T10:10:10;10.97;;;4.00;;
6785;SDS011;3430;51.192;6.048;2023-12-22T10:12:56;6.73;;;3.40;;
6785;SDS011;3430;51.192;6.048;2023-12-22T10:15:40;8.43;;;3.50;;
6785;SDS011;3430;51.192;6.048;2023-12-22T10:18:14;8.20;;;3.20;;
6785;SDS011;3430;51.192;6.048;2023-12-22T10:20:49;9.90;;;3.17;;
6785;SDS011;3430;51.192;6.048;2023-12-22T10:23:21;8.60;;;3.60;;
6785;SDS011;3430;51.192;6.048;2023-12-22T10:25:53;8.97;;;3.17;;
6785;SDS011;3430;51.192;6.048;2023-12-22T10:28:27;6.07;;;3.13;;
6785;SDS011;3430;51.192;6.048;2023-12-22T10:30:53;7.53;;;3.03;;
6785;SDS011;3430;51.192;6.048;2023-12-22T10:33:21;11.17;;;3.10;;
6785;SDS011;3430;51.192;6.048;2023-12-22T10:35:50;7.90;;;3.03;;
6785;SDS011;3430;51.192;6.048;2023-12-22T10:38:32;6.10;;;3.43;;
6785;SDS011;3430;51.192;6.048;2023-12-22T10:41:10;9.60;;;3.63;;
6785;SDS011;3430;51.192;6.048;2023-12-22T10:43:41;12.80;;;4.10;;
6785;SDS011;3430;51.192;6.048;2023-12-22T10:46:11;6.63;;;2.87;;
6785;SDS011;3430;51.192;6.048;2023-12-22T10:48:49;7.70;;;3.17;;
6785;SDS011;3430;51.192;6.048;2023-12-22T10:51:18;8.73;;;3.70;;
6785;SDS011;3430;51.192;6.048;2023-12-22T10:53:59;5.87;;;3.07;;
6785;SDS011;3430;51.192;6.048;2023-12-22T10:56:28;10.37;;;4.03;;
6785;SDS011;3430;51.192;6.048;2023-12-22T10:58:56;9.30;;;3.27;;
6785;SDS011;3430;51.192;6.048;2023-12-22T11:01:23;7.23;;;3.37;;
6785;SDS011;3430;51.192;6.048;2023-12-22T11:04:13;6.23;;;3.00;;
6785;SDS011;3430;51.192;6.048;2023-12-22T11:06:45;5.90;;;2.47;;
6785;SDS011;3430;51.192;6.048;2023-12-22T11:09:16;7.53;;;3.00;;
6785;SDS011;3430;51.192;6.048;2023-12-22T11:11:44;7.27;;;2.90;;
6785;SDS011;3430;51.192;6.048;2023-12-22T11:14:10;7.97;;;3.57;;
6785;SDS011;3430;51.192;6.048;2023-12-22T11:16:36;6.43;;;3.37;;
6785;SDS011;3430;51.192;6.048;2023-12-22T11:19:04;6.07;;;3.30;;
6785;SDS011;3430;51.192;6.048;2023-12-22T11:21:39;5.03;;;2.37;;
6785;SDS011;3430;51.192;6.048;2023-12-22T11:24:08;8.63;;;2.63;;
6785;SDS011;3430;51.192;6.048;2023-12-22T11:26:40;5.60;;;3.10;;
6785;SDS011;3430;51.192;6.048;2023-12-22T11:29:26;5.70;;;2.93;;
6785;SDS011;3430;51.192;6.048;2023-12-22T11:32:04;5.63;;;3.20;;
6785;SDS011;3430;51.192;6.048;2023-12-22T11:34:45;9.87;;;2.90;;
6785;SDS011;3430;51.192;6.048;2023-12-22T11:37:15;6.80;;;3.00;;
6785;SDS011;3430;51.192;6.048;2023-12-22T11:39:46;7.20;;;2.90;;
6785;SDS011;3430;51.192;6.048;2023-12-22T11:42:28;2.80;;;2.13;;
6785;SDS011;3430;51.192;6.048;2023-12-22T11:45:17;9.07;;;3.03;;
6785;SDS011;3430;51.192;6.048;2023-12-22T11:50:35;6.87;;;3.00;;
6785;SDS011;3430;51.192;6.048;2023-12-22T11:53:29;4.10;;;2.40;;
6785;SDS011;3430;51.192;6.048;2023-12-22T11:56:05;6.23;;;2.90;;
6785;SDS011;3430;51.192;6.048;2023-12-22T11:58:47;7.50;;;2.80;;
6785;SDS011;3430;51.192;6.048;2023-12-22T12:01:34;4.13;;;2.20;;
6785;SDS011;3430;51.192;6.048;2023-12-22T12:04:03;11.67;;;2.97;;
6785;SDS011;3430;51.192;6.048;2023-12-22T12:06:36;6.07;;;2.73;;
6785;SDS011;3430;51.192;6.048;2023-12-22T12:09:16;3.00;;;2.20;;
6785;SDS011;3430;51.192;6.048;2023-12-22T12:15:18;5.73;;;2.67;;
6785;SDS011;3430;51.192;6.048;2023-12-22T12:17:58;5.07;;;2.47;;
6785;SDS011;3430;51.192;6.048;2023-12-22T12:20:23;2.43;;;2.20;;
6785;SDS011;3430;51.192;6.048;2023-12-22T12:22:49;5.33;;;2.53;;
6785;SDS011;3430;51.192;6.048;2023-12-22T12:25:17;7.57;;;3.07;;
6785;SDS011;3430;51.192;6.048;2023-12-22T12:27:45;6.87;;;2.23;;
6785;SDS011;3430;51.192;6.048;2023-12-22T12:30:11;7.40;;;2.70;;
6785;SDS011;3430;51.192;6.048;2023-12-22T12:32:37;3.20;;;2.47;;
6785;SDS011;3430;51.192;6.048;2023-12-22T12:35:02;5.83;;;2.50;;
6785;SDS011;3430;51.192;6.048;2023-12-22T12:37:35;5.67;;;2.90;;
6785;SDS011;3430;51.192;6.048;2023-12-22T12:40:01;4.93;;;2.60;;
6785;SDS011;3430;51.192;6.048;2023-12-22T12:42:28;6.40;;;2.70;;
6785;SDS011;3430;51.192;6.048;2023-12-22T12:44:56;4.57;;;2.87;;
6785;SDS011;3430;51.192;6.048;2023-12-22T12:47:25;5.10;;;2.30;;
6785;SDS011;3430;51.192;6.048;2023-12-22T12:52:43;5.87;;;2.57;;
6785;SDS011;3430;51.192;6.048;2023-12-22T12:55:09;5.10;;;2.73;;
6785;SDS011;3430;51.192;6.048;2023-12-22T12:57:43;4.07;;;2.20;;
6785;SDS011;3430;51.192;6.048;2023-12-22T13:00:12;2.77;;;2.17;;
6785;SDS011;3430;51.192;6.048;2023-12-22T13:02:38;6.30;;;3.00;;
6785;SDS011;3430;51.192;6.048;2023-12-22T13:05:04;6.23;;;2.40;;
6785;SDS011;3430;51.192;6.048;2023-12-22T13:07:36;5.03;;;2.57;;
6785;SDS011;3430;51.192;6.048;2023-12-22T13:10:05;4.27;;;2.33;;
6785;SDS011;3430;51.192;6.048;2023-12-22T13:12:33;5.27;;;2.60;;
6785;SDS011;3430;51.192;6.048;2023-12-22T13:15:02;4.33;;;2.57;;
6785;SDS011;3430;51.192;6.048;2023-12-22T13:17:40;3.93;;;2.47;;
6785;SDS011;3430;51.192;6.048;2023-12-22T13:20:05;5.07;;;2.43;;
6785;SDS011;3430;51.192;6.048;2023-12-22T13:22:34;3.83;;;2.53;;
6785;SDS011;3430;51.192;6.048;2023-12-22T13:24:59;6.77;;;2.87;;
6785;SDS011;3430;51.192;6.048;2023-12-22T13:27:25;4.90;;;2.60;;
6785;SDS011;3430;51.192;6.048;2023-12-22T13:29:59;5.10;;;2.37;;
6785;SDS011;3430;51.192;6.048;2023-12-22T13:32:25;7.57;;;2.73;;
6785;SDS011;3430;51.192;6.048;2023-12-22T13:35:17;2.70;;;2.13;;
6785;SDS011;3430;51.192;6.048;2023-12-22T13:37:53;5.40;;;2.87;;
6785;SDS011;3430;51.192;6.048;2023-12-22T13:40:18;2.33;;;2.13;;
6785;SDS011;3430;51.192;6.048;2023-12-22T13:42:59;2.77;;;2.40;;
6785;SDS011;3430;51.192;6.048;2023-12-22T13:45:29;3.63;;;2.40;;
6785;SDS011;3430;51.192;6.048;2023-12-22T13:48:19;2.97;;;2.17;;
6785;SDS011;3430;51.192;6.048;2023-12-22T13:50:54;2.43;;;1.90;;
6785;SDS011;3430;51.192;6.048;2023-12-22T13:53:19;3.53;;;2.43;;
6785;SDS011;3430;51.192;6.048;2023-12-22T13:55:53;4.77;;;2.23;;
6785;SDS011;3430;51.192;6.048;2023-12-22T13:58:24;5.80;;;2.40;;
6785;SDS011;3430;51.192;6.048;2023-12-22T14:01:04;4.30;;;2.23;;
6785;SDS011;3430;51.192;6.048;2023-12-22T14:03:43;6.00;;;2.47;;
6785;SDS011;3430;51.192;6.048;2023-12-22T14:06:23;2.20;;;2.00;;
6785;SDS011;3430;51.192;6.048;2023-12-22T14:08:55;4.13;;;2.40;;
6785;SDS011;3430;51.192;6.048;2023-12-22T14:11:21;3.33;;;2.20;;
6785;SDS011;3430;51.192;6.048;2023-12-22T14:13:47;6.10;;;2.40;;
6785;SDS011;3430;51.192;6.048;2023-12-22T14:16:38;3.73;;;2.10;;
6785;SDS011;3430;51.192;6.048;2023-12-22T14:19:06;4.43;;;2.00;;
6785;SDS011;3430;51.192;6.048;2023-12-22T14:21:32;3.27;;;2.30;;
6785;SDS011;3430;51.192;6.048;2023-12-22T14:24:21;2.80;;;2.20;;
6785;SDS011;3430;51.192;6.048;2023-12-22T14:26:58;2.87;;;2.47;;
6785;SDS011;3430;51.192;6.048;2023-12-22T14:29:23;3.07;;;2.17;;
6785;SDS011;3430;51.192;6.048;2023-12-22T14:31:54;3.13;;;1.87;;
6785;SDS011;3430;51.192;6.048;2023-12-22T14:34:20;4.30;;;2.20;;
6785;SDS011;3430;51.192;6.048;2023-12-22T14:36:53;2.97;;;2.20;;
6785;SDS011;3430;51.192;6.048;2023-12-22T14:39:18;5.03;;;2.00;;
6785;SDS011;3430;51.192;6.048;2023-12-22T14:41:43;5.00;;;2.07;;
6785;SDS011;3430;51.192;6.048;2023-12-22T14:44:09;3.97;;;2.00;;
6785;SDS011;3430;51.192;6.048;2023-12-22T14:46:41;4.73;;;2.13;;
6785;SDS011;3430;51.192;6.048;2023-12-22T14:49:10;5.10;;;2.10;;
6785;SDS011;3430;51.192;6.048;2023-12-22T14:51:40;6.37;;;1.93;;
6785;SDS011;3430;51.192;6.048;2023-12-22T14:54:12;4.80;;;2.20;;
6785;SDS011;3430;51.192;6.048;2023-12-22T14:59:32;3.30;;;2.00;;
6785;SDS011;3430;51.192;6.048;2023-12-22T15:01:57;3.57;;;2.17;;
6785;SDS011;3430;51.192;6.048;2023-12-22T15:04:26;4.57;;;2.00;;
6785;SDS011;3430;51.192;6.048;2023-12-22T15:06:54;3.03;;;1.90;;
6785;SDS011;3430;51.192;6.048;2023-12-22T15:09:31;5.63;;;2.17;;
6785;SDS011;3430;51.192;6.048;2023-12-22T15:11:56;5.00;;;2.30;;
6785;SDS011;3430;51.192;6.048;2023-12-22T15:17:10;4.43;;;2.40;;
6785;SDS011;3430;51.192;6.048;2023-12-22T15:19:41;2.60;;;1.77;;
6785;SDS011;3430;51.192;6.048;2023-12-22T15:31:35;4.97;;;2.40;;
6785;SDS011;3430;51.192;6.048;2023-12-22T15:37:30;2.53;;;2.13;;
6785;SDS011;3430;51.192;6.048;2023-12-22T15:56:34;2.33;;;2.13;;
6785;SDS011;3430;51.192;6.048;2023-12-22T15:59:12;4.67;;;2.27;;
6785;SDS011;3430;51.192;6.048;2023-12-22T16:04:57;4.57;;;2.10;;
6785;SDS011;3430;51.192;6.048;2023-12-22T16:10:41;2.93;;;2.30;;
6785;SDS011;3430;51.192;6.048;2023-12-22T16:13:20;3.17;;;2.07;;
6785;SDS011;3430;51.192;6.048;2023-12-22T16:15:48;3.83;;;2.30;;
6785;SDS011;3430;51.192;6.048;2023-12-22T16:21:04;3.13;;;2.10;;
6785;SDS011;3430;51.192;6.048;2023-12-22T16:23:35;3.90;;;2.03;;
6785;SDS011;3430;51.192;6.048;2023-12-22T16:26:23;3.63;;;2.30;;
6785;SDS011;3430;51.192;6.048;2023-12-22T16:28:49;2.37;;;2.10;;
6785;SDS011;3430;51.192;6.048;2023-12-22T16:31:20;7.93;;;2.40;;
6785;SDS011;3430;51.192;6.048;2023-12-22T16:33:51;4.03;;;2.10;;
6785;SDS011;3430;51.192;6.048;2023-12-22T16:36:17;5.97;;;2.13;;
6785;SDS011;3430;51.192;6.048;2023-12-22T16:38:42;7.13;;;2.37;;
6785;SDS011;3430;51.192;6.048;2023-12-22T16:41:10;9.33;;;2.40;;
6785;SDS011;3430;51.192;6.048;2023-12-22T16:43:38;18.43;;;3.97;;
6785;SDS011;3430;51.192;6.048;2023-12-22T16:46:15;2.77;;;2.00;;
6785;SDS011;3430;51.192;6.048;2023-12-22T16:48:43;8.97;;;2.30;;
6785;SDS011;3430;51.192;6.048;2023-12-22T16:51:12;5.27;;;2.20;;
6785;SDS011;3430;51.192;6.048;2023-12-22T16:53:44;3.17;;;2.00;;